• Join FlightAware (Why Join?)
  • Login
  • US Flag 
01:11PM EST


 

Airport Tracker/Info


-or-


 

Live Flight TrackerFlight Track Log ✈ IBE3753 ✈ 27-Aug-2012 ✈ LLBG / TLV - LEMD / MAD

Flight Track Log - Related Links

Times and Time Zones

All times are in EDT time to prevent confusion due to time zone crossing. See the IBE3753 flight status page for this flight to view local times or setup timezone preferences in your user account.

Time Position Orientation Groundspeed Altitude Reporting Facility
EDT Latitude Longitude Course Direction KTS MPH feet Rate Location/Type
10:31AM 32.6840 33.0550 304° West 467 537 25,600  Level FlightAware
10:31AM 32.7300 32.9740 303° West 469 540 26,400 1,200 Climbing FlightAware
10:32AM 32.7850 32.8750 302° West 475 547 27,300 1,320 Climbing FlightAware
10:33AM 32.8330 32.7840 302° West 475 547 28,300 1,260 Climbing FlightAware
10:33AM 32.8750 32.7040 302° West 475 547 29,100 1,200 Climbing FlightAware
10:34AM 32.9170 32.6240 306° West 475 547 30,000 2,100 Climbing FlightAware
10:35AM 32.9940 32.4970 303° West 473 544 31,900 1,920 Climbing FlightAware
10:35AM 33.0510 32.3940 303° West 477 549 32,800 1,200 Climbing FlightAware
10:36AM 33.1000 32.3050 303° West 478 550 33,600 1,500 Climbing FlightAware
10:37AM 33.1460 32.2210 303° West 474 545 34,800 1,380 Climbing FlightAware
10:38AM 33.1970 32.1270 303° West 462 532 35,600 840 Climbing FlightAware
10:38AM 33.2360 32.0550 303° West 469 540 36,000 660 Climbing FlightAware
10:39AM 33.2790 31.9770 303° West 469 540 36,500  Climbing FlightAware
10:40AM 33.3390 31.8650 303° West 480 552 36,000 -360 Descending FlightAware
10:40AM 33.3960 31.7610 303° West 483 556 36,000  Level FlightAware
10:41AM 33.4480 31.6640 303° West 482 555 36,000  Level FlightAware
10:42AM 33.4980 31.5710 303° West 481 554 36,000  Level FlightAware
10:42AM 33.5470 31.4800 303° West 480 552 36,000  Level FlightAware
10:43AM 33.5950 31.3900 302° West 481 554 36,000  Level FlightAware
10:44AM 33.6500 31.2860 303° West 482 555 36,000  Level FlightAware
10:44AM 33.6990 31.1950 303° West 481 554 36,000  Level FlightAware
10:45AM 33.7530 31.0930 302° West 480 552 36,000  Level FlightAware
10:46AM 33.7950 31.0130 303° West 478 550 36,000  Level FlightAware
10:47AM 33.8480 30.9140 302° West 477 549 36,000  Level FlightAware
10:47AM 33.9040 30.8070 302° West 476 548 36,000  Level FlightAware
10:48AM 33.9410 30.7360 302° West 473 544 36,000  Level FlightAware
10:49AM 34.0000 30.6240 302° West 478 550 36,000  Level FlightAware
10:49AM 34.0540 30.5210 302° West 474 545 36,000  Level FlightAware
10:50AM 34.0970 30.4390 302° West 475 547 36,000  Level FlightAware
10:51AM 34.1530 30.3300 303° West 480 552 36,000  Level FlightAware
10:52AM 34.2020 30.2370 302° West 482 555 36,000  Level FlightAware
10:52AM 34.2400 30.1630 302° West 476 548 36,000  Level FlightAware
10:53AM 34.2970 30.0530 302° West 475 547 36,000  Level FlightAware
10:54AM 34.3340 29.9800 301° West 475 547 36,000  Level FlightAware
10:54AM 34.3920 29.8650 301° West 475 547 36,000  Level FlightAware
10:55AM 34.4330 29.7830 301° West 475 547 36,000  Level FlightAware
10:56AM 34.4740 29.7010 301° West 475 547 36,000  Level FlightAware
10:56AM 34.5150 29.6190 301° West 475 547 36,000  Level FlightAware
10:57AM 34.5650 29.5160 301° West 475 547 36,000  Level FlightAware
10:58AM 34.6060 29.4330 301° West 475 547 36,000  Level FlightAware
10:59AM 34.6470 29.3510 299° West 475 547 36,000  Level FlightAware
11:04AM 35.0010 28.5660 299° West 471 542 36,000  Level FlightAware
11:04AM 35.0420 28.4760 299° West 471 542 36,000  Level FlightAware
11:05AM 35.0830 28.3860 299° West 470 541 36,000  Level FlightAware
11:06AM 35.1310 28.2820 299° West 470 541 36,000  Level FlightAware
11:06AM 35.1800 28.1750 298° West 469 540 36,000  Level FlightAware
11:07AM 35.2170 28.0880 298° West 469 540 36,000  Level FlightAware
11:08AM 35.2540 28.0040 297° West 469 540 36,000  Level FlightAware
11:09AM 35.2900 27.9190 301° West 469 540 36,000  Level FlightAware
11:09AM 35.3510 27.7950 298° West 465 535 36,000  Level FlightAware
11:10AM 35.3910 27.7030 298° West 467 537 36,000  Level FlightAware
11:11AM 35.4280 27.6180 298° West 467 537 36,000  Level FlightAware
11:11AM 35.4730 27.5130 300° West 467 537 36,000  Level FlightAware
11:12AM 35.5180 27.4180 298° West 467 537 36,000  Level FlightAware
11:13AM 35.5690 27.3000 297° West 461 531 36,000  Level FlightAware
11:13AM 35.6040 27.2160 297° West 461 531 36,000  Level FlightAware
11:14AM 35.6390 27.1320 297° West 461 531 36,000  Level FlightAware
11:15AM 35.6730 27.0480 297° West 461 531 36,000  Level FlightAware
11:16AM 35.7080 26.9630 296° West 461 531 36,000  Level FlightAware
12:10PM 38.4530 19.2170 291° West 442 509 36,000  Level FlightAware
12:11PM 38.4830 19.1180 288° West 438 504 36,000  Level FlightAware
12:11PM 38.5120 19.0060 288° West 439 505 36,000  Level FlightAware
12:12PM 38.5350 18.9180 288° West 438 504 36,000  Level FlightAware
12:13PM 38.5570 18.8300 289° West 441 507 36,000  Level FlightAware
12:13PM 38.5820 18.7350 289° West 440 506 36,000  Level FlightAware
12:14PM 38.6080 18.6370 288° West 443 510 36,000  Level FlightAware
12:15PM 38.6390 18.5150 288° West 444 511 36,000  Level FlightAware
12:15PM 38.6630 18.4230 288° West 444 511 36,000  Level FlightAware
12:16PM 38.6910 18.3110 288° West 444 511 36,000  Level FlightAware
12:17PM 38.7180 18.2070 288° West 445 512 36,000  Level FlightAware
12:18PM 38.7460 18.0970 288° West 445 512 36,000  Level FlightAware
12:18PM 38.7710 17.9980 287° West 446 513 36,000  Level FlightAware
12:19PM 38.7990 17.8830 288° West 446 513 36,000  Level FlightAware
12:20PM 38.8260 17.7760 288° West 445 512 36,000  Level FlightAware
12:20PM 38.8500 17.6800 288° West 446 513 36,000  Level FlightAware
12:21PM 38.8760 17.5740 288° West 447 514 36,000  Level FlightAware
12:22PM 38.9030 17.4640 288° West 448 516 36,000  Level FlightAware
12:23PM 38.9310 17.3500 287° West 452 520 36,000  Level FlightAware
12:23PM 38.9530 17.2600 288° West 449 517 36,000  Level FlightAware
12:24PM 38.9780 17.1610 291° West 450 518 36,000  Level FlightAware
12:25PM 39.0070 17.0620 274° West 450 518 36,000  Level FlightAware
12:25PM 39.0150 16.9220 285° West 448 516 36,000  Level FlightAware
12:26PM 39.0390 16.8060 272° West 448 516 36,000  Level FlightAware
12:27PM 39.0420 16.6960 285° West 448 516 36,000  Level FlightAware
12:27PM 39.0660 16.5800 285° West 448 516 36,000  Level FlightAware
12:28PM 39.0850 16.4870 286° West 448 516 36,000  Level FlightAware
12:29PM 39.1050 16.3940 263° West 448 516 36,000  Level FlightAware
12:29PM 39.0920 16.2530 278° West 447 514 36,000  Level FlightAware
12:30PM 39.1050 16.1350 279° West 441 507 36,000  Level FlightAware
12:31PM 39.1160 16.0410 278° West 441 507 36,000  Level FlightAware
12:32PM 39.1260 15.9470 279° West 441 507 36,000  Level FlightAware
12:32PM 39.1420 15.8150 278° West 441 507 36,000  Level FlightAware
12:33PM 39.1550 15.7000 278° West 441 507 36,000  Level FlightAware
12:34PM 39.1670 15.5850 279° West 441 507 36,000  Level FlightAware
12:34PM 39.1780 15.4910 278° West 442 509 36,000  Level FlightAware
12:35PM 39.1910 15.3670 278° West 443 510 36,000  Level FlightAware
12:36PM 39.2030 15.2580 278° West 444 511 36,000  Level FlightAware
12:37PM 39.2150 15.1410 278° West 444 511 36,000  Level FlightAware
12:37PM 39.2260 15.0340 278° West 444 511 36,000  Level FlightAware
12:38PM 39.2370 14.9300 278° West 443 510 36,000  Level FlightAware
12:39PM 39.2490 14.8130 277° West 443 510 36,000  Level FlightAware
12:39PM 39.2590 14.7140 278° West 443 510 36,000  Level FlightAware
12:40PM 39.2700 14.6080 277° West 445 512 36,000  Level FlightAware
12:41PM 39.2800 14.4950 278° West 445 512 36,000  Level FlightAware
12:41PM 39.2930 14.3720 277° West 448 516 36,000  Level FlightAware
12:42PM 39.3020 14.2770 285° West 446 513 36,000  Level FlightAware
12:43PM 39.3310 14.1400 285° West 447 514 36,000  Level FlightAware
12:44PM 39.3500 14.0460 285° West 450 518 36,000  Level FlightAware
12:44PM 39.3730 13.9360 284° West 449 517 36,000  Level FlightAware
12:45PM 39.3910 13.8420 285° West 449 517 36,000  Level FlightAware
12:46PM 39.4170 13.7190 285° West 446 513 36,000  Level FlightAware
12:46PM 39.4380 13.6190 284° West 446 513 36,000  Level FlightAware
12:47PM 39.4600 13.5070 285° West 447 514 36,000  Level FlightAware
12:48PM 39.4820 13.3990 284° West 447 514 36,000  Level FlightAware
12:48PM 39.5020 13.2970 285° West 447 514 36,000  Level FlightAware
12:49PM 39.5230 13.1950 284° West 448 516 36,000  Level FlightAware
12:50PM 39.5450 13.0780 285° West 448 516 36,000  Level FlightAware
12:51PM 39.5640 12.9840 284° West 448 516 36,000  Level FlightAware
12:51PM 39.5820 12.8920 284° West 446 513 36,000  Level FlightAware
12:52PM 39.6110 12.7440 284° West 449 517 36,000  Level FlightAware
12:53PM 39.6260 12.6680 284° West 451 519 36,000  Level FlightAware
12:53PM 39.6500 12.5430 283° West 452 520 36,000  Level FlightAware
12:54PM 39.6670 12.4500 284° West 452 520 36,000  Level FlightAware
12:55PM 39.6930 12.3170 282° West 442 509 36,000  Level FlightAware
12:55PM 39.7080 12.2270 284° West 442 509 36,000  Level FlightAware
12:57PM 39.7570 11.9790 284° West 445 512 36,000  Level FlightAware
12:58PM 39.7800 11.8570 283° West 446 513 36,000  Level FlightAware
12:58PM 39.7960 11.7630 284° West 447 514 36,000  Level FlightAware
12:59PM 39.8170 11.6520 284° West 448 516 36,000  Level FlightAware
01:00PM 39.8390 11.5330 283° West 447 514 36,000  Level FlightAware
01:00PM 39.8570 11.4340 283° West 449 517 36,000  Level FlightAware
01:01PM 39.8790 11.3130 283° West 451 519 36,000  Level FlightAware
01:02PM 39.8950 11.2190 277° West 451 519 36,000  Level FlightAware
01:02PM 39.9070 11.0830 280° West 448 516 36,000  Level FlightAware
01:03PM 39.9220 10.9710 280° West 448 516 36,000  Level FlightAware
01:04PM 39.9350 10.8750 279° West 445 512 36,000  Level FlightAware
01:04PM 39.9480 10.7660 280° West 445 512 36,000  Level FlightAware
01:05PM 39.9640 10.6410 280° West 445 512 36,000  Level FlightAware
01:06PM 39.9770 10.5410 279° West 446 513 36,000  Level FlightAware
01:07PM 39.9920 10.4200 279° West 446 513 36,000  Level FlightAware
01:07PM 40.0040 10.3250 279° West 448 516 36,000  Level FlightAware
01:08PM 40.0170 10.2160 279° West 448 516 36,000  Level FlightAware
01:09PM 40.0320 10.0880 279° West 447 514 36,000  Level FlightAware
01:09PM 40.0440 9.9900 279° West 447 514 36,000  Level FlightAware
01:10PM 40.0600 9.8550 279° West 449 517 36,000  Level FlightAware
01:11PM 40.0730 9.7490 279° West 451 519 36,000  Level FlightAware
01:12PM 40.0870 9.6290 279° West 450 518 36,000  Level FlightAware
01:12PM 40.0980 9.5330 279° West 451 519 36,000  Level FlightAware
01:13PM 40.1100 9.4300 278° West 450 518 36,000  Level FlightAware
01:14PM 40.1240 9.3050 279° West 448 516 36,000  Level FlightAware
01:14PM 40.1350 9.2100 279° West 449 517 36,000  Level FlightAware
01:15PM 40.1470 9.1050 279° West 452 520 36,000  Level FlightAware
01:16PM 40.1610 8.9830 278° West 453 521 36,000 -240 Level FlightAware
01:16PM 40.1720 8.8740 279° West 452 520 35,700 -480 Descending FlightAware
01:17PM 40.1850 8.7630 278° West 453 521 35,400 -540 Descending FlightAware
01:18PM 40.1980 8.6420 278° West 454 522 35,000 -300 Descending FlightAware
01:18PM 40.2100 8.5270 278° West 454 522 35,000  Level FlightAware
01:19PM 40.2230 8.4050 271° West 451 519 35,000  Level FlightAware
01:20PM 40.2250 8.2970 264° West 452 520 35,000  Level FlightAware
01:20PM 40.2160 8.1880 265° West 453 521 35,000  Level FlightAware
01:21PM 40.2070 8.0640 265° West 452 520 35,000  Level FlightAware
01:22PM 40.1980 7.9420 264° West 452 520 35,000  Level FlightAware
01:23PM 40.1900 7.8350 265° West 453 521 35,000  Level FlightAware
01:23PM 40.1810 7.7110 264° West 455 524 35,000  Level FlightAware
01:24PM 40.1730 7.6070 265° West 453 521 35,000  Level FlightAware
01:25PM 40.1650 7.4950 264° West 452 520 35,000  Level FlightAware
01:25PM 40.1560 7.3860 264° West 451 519 35,000  Level FlightAware
01:26PM 40.1470 7.2670 264° West 448 516 35,000  Level FlightAware
01:27PM 40.1380 7.1570 264° West 449 517 35,000  Level FlightAware
01:27PM 40.1300 7.0530 263° West 449 517 35,000  Level FlightAware
01:28PM 40.1190 6.9280 264° West 450 518 35,000  Level FlightAware
01:29PM 40.1090 6.8060 264° West 452 520 35,000  Level FlightAware
01:30PM 40.1000 6.7000 264° West 451 519 35,000  Level FlightAware
01:30PM 40.0900 6.5810 263° West 452 520 35,000  Level FlightAware
01:31PM 40.0800 6.4670 264° West 452 520 35,000  Level FlightAware
01:32PM 40.0710 6.3570 263° West 452 520 35,000  Level FlightAware
01:32PM 40.0600 6.2360 264° West 455 524 35,000  Level FlightAware
01:33PM 40.0510 6.1280 263° West 455 524 35,000  Level FlightAware
01:34PM 40.0430 6.0470 263° West 454 522 35,000  Level FlightAware
01:34PM 40.0330 5.9360 264° West 453 521 35,000  Level FlightAware
01:35PM 40.0240 5.8280 263° West 453 521 35,000  Level FlightAware
01:36PM 40.0120 5.7070 263° West 454 522 35,000  Level FlightAware
01:36PM 40.0040 5.6160 263° West 456 525 35,000  Level FlightAware
01:37PM 39.9930 5.4990 263° West 456 525 35,000  Level FlightAware
01:38PM 39.9800 5.3620 263° West 455 524 35,000  Level FlightAware
01:38PM 39.9710 5.2670 262° West 455 524 35,000  Level FlightAware
01:39PM 39.9600 5.1600 263° West 456 525 35,000  Level FlightAware
01:40PM 39.9490 5.0470 263° West 456 525 35,000  Level FlightAware
01:41PM 39.9350 4.9080 263° West 458 527 35,000  Level FlightAware
01:41PM 39.9250 4.8020 262° West 458 527 35,000  Level FlightAware
01:42PM 39.9130 4.6840 262° West 456 525 35,000  Level FlightAware
01:43PM 39.9020 4.5810 262° West 457 526 35,000  Level FlightAware
01:43PM 39.8880 4.4490 262° West 456 525 35,000  Level FlightAware
01:44PM 39.8770 4.3430 262° West 456 525 35,000  Level FlightAware
01:45PM 39.8650 4.2340 256° West 456 525 35,000  Level FlightAware
01:45PM 39.8420 4.1120 255° West 455 524 35,000  Level FlightAware
01:46PM 39.8200 4.0060 255° West 455 524 35,000  Level FlightAware
01:47PM 39.7980 3.9010 255° West 454 522 35,000  Level FlightAware
01:48PM 39.7730 3.7830 254° West 452 520 35,000  Level FlightAware
01:48PM 39.7500 3.6770 255° West 451 519 35,000  Level FlightAware
01:49PM 39.7250 3.5600 255° West 451 519 35,000  Level FlightAware
01:50PM 39.7040 3.4550 264° West 451 519 35,000  Level FlightAware
01:50PM 39.6950 3.3490 267° West 454 522 35,000  Level FlightAware
01:51PM 39.6900 3.2240 267° West 456 525 35,000  Level FlightAware
01:51PM 39.6870 3.1570 267° West 456 525 35,000  Level FlightAware
01:52PM 39.6820 3.0330 267° West 456 525 35,000  Level FlightAware
01:53PM 39.6780 2.9250 267° West 457 526 35,000  Level FlightAware
01:54PM 39.6730 2.8020 266° West 459 528 35,000  Level FlightAware
01:54PM 39.6670 2.6770 267° West 458 527 35,000  Level FlightAware
01:55PM 39.6630 2.5680 267° West 457 526 35,000  Level FlightAware
01:56PM 39.6580 2.4570 266° West 458 527 35,000  Level FlightAware
01:56PM 39.6520 2.3360 267° West 458 527 35,000  Level FlightAware
01:57PM 39.6470 2.2250 266° West 459 528 35,000  Level FlightAware
01:58PM 39.6410 2.1010 266° West 459 528 35,000  Level FlightAware
01:59PM 39.6350 1.9910 267° West 462 532 35,000  Level FlightAware
01:59PM 39.6300 1.8830 266° West 464 534 35,000  Level FlightAware
02:00PM 39.6230 1.7570 267° West 464 534 35,000  Level FlightAware
02:01PM 39.6180 1.6460 266° West 461 531 35,000  Level FlightAware
02:01PM 39.6120 1.5350 273° West 460 529 35,000  Level FlightAware
02:02PM 39.6160 1.4260 273° West 461 531 35,000  Level FlightAware
02:03PM 39.6210 1.3170 273° West 460 529 35,000  Level FlightAware
02:03PM 39.6260 1.2070 274° West 462 532 35,000  Level FlightAware
02:04PM 39.6320 1.0810 274° West 462 532 35,000  Level FlightAware
02:05PM 39.6370 0.9760 273° West 460 529 35,000  Level FlightAware
02:05PM 39.6410 0.8690 272° West 459 528 35,000  Level FlightAware
02:06PM 39.6450 0.7450 274° West 460 529 35,000  Level FlightAware
02:07PM 39.6520 0.6270 273° West 461 531 35,000  Level FlightAware
02:08PM 39.6570 0.5030 273° West 459 528 35,000  Level FlightAware
02:08PM 39.6610 0.3950 272° West 459 528 35,000  Level FlightAware
02:09PM 39.6630 0.3080 273° West 459 528 35,000  Level FlightAware
02:10PM 39.6700 0.1570 273° West 465 535 35,000  Level FlightAware
02:10PM 39.6730 0.0800 273° West 464 534 35,000  Level FlightAware
02:11PM 39.6770 -0.0320 272° West 463 533 35,000  Level FlightAware
02:12PM 39.6800 -0.1580 272° West 463 533 35,000  Level FlightAware
02:12PM 39.6830 -0.2580 272° West 463 533 35,000  Level FlightAware
02:13PM 39.6860 -0.3580 273° West 463 533 35,000  Level FlightAware
02:14PM 39.6930 -0.5190 273° West 451 519 35,000  Level FlightAware
02:14PM 39.6960 -0.6090 272° West 454 522 35,000 -300 Level FlightAware
02:15PM 39.7000 -0.7350 272° West 450 518 34,600 -900 Descending FlightAware
02:16PM 39.7030 -0.8550 285° West 451 519 33,700 -1,140 Descending FlightAware
02:16PM 39.7200 -0.9350 298° West 469 540 33,200 -780 Descending FlightAware
02:17PM 39.7630 -1.0420 297° West 469 540 32,800 -2,340 Descending FlightAware
02:18PM 39.8030 -1.1460 298° West 472 543 30,100 -2,700 Descending FlightAware
02:18PM 39.8480 -1.2550 298° West 462 532 29,000 -1,560 Descending FlightAware
02:19PM 39.8880 -1.3530 297° West 450 518 27,900 -1,440 Descending FlightAware
02:20PM 39.9340 -1.4690 297° West 427 491 26,900 -1,140 Descending FlightAware
02:21PM 39.9710 -1.5620 297° West 432 497 26,200 -1,200 Descending FlightAware
02:21PM 40.0080 -1.6550 297° West 428 493 25,300 -1,500 Descending FlightAware
02:22PM 40.0410 -1.7390 297° West 427 491 24,200 -1,620 Descending FlightAware
02:23PM 40.0770 -1.8320 297° West 424 488 23,200 -1,680 Descending FlightAware
02:23PM 40.1170 -1.9330 297° West 411 473 21,900 -1,620 Descending FlightAware
02:24PM 40.1570 -2.0340 300° West 396 456 20,800 -1,140 Descending FlightAware
02:25PM 40.1930 -2.1170 303° West 384 442 20,300 -840 Descending FlightAware
02:25PM 40.2330 -2.1980 313° West 393 452 19,700 -1,020 Descending FlightAware
02:26PM 40.2880 -2.2760 312° West 390 449 18,900 -1,020 Descending FlightAware
02:27PM 40.3370 -2.3480 313° West 390 449 18,300 -1,020 Descending FlightAware
02:28PM 40.3840 -2.4150 312° West 382 440 17,600 -1,020 Descending FlightAware
02:28PM 40.4380 -2.4940 312° West 374 430 16,900 -1,020 Descending FlightAware
02:29PM 40.4840 -2.5610 311° West 353 406 16,200 -1,080 Descending FlightAware
02:30PM 40.5260 -2.6240 307° West 339 390 15,500 -1,020 Descending FlightAware
02:30PM 40.5690 -2.7000 305° West 352 405 14,800 -1,020 Descending FlightAware
02:31PM 40.6070 -2.7720 304° West 365 420 14,100 -1,020 Descending FlightAware
02:32PM 40.6460 -2.8470 305° West 365 420 13,500 -1,020 Descending FlightAware
02:32PM 40.6890 -2.9290 304° West 355 409 12,700 -1,020 Descending FlightAware
02:33PM 40.7250 -2.9990 305° West 348 400 12,100 -1,020 Descending FlightAware
02:34PM 40.7670 -3.0790 305° West 351 404 11,300 -1,080 Descending FlightAware
02:35PM 40.8040 -3.1490 304° West 348 400 10,600 -1,020 Descending FlightAware
02:35PM 40.8420 -3.2230 295° West 344 396 9,900 -540 Descending FlightAware
02:36PM 40.8740 -3.3150 279° West 293 337 9,700 -300 Descending FlightAware
02:37PM 40.8800 -3.3650 277° West 293 337 9,500 -780 Descending FlightAware
02:38PM 40.8890 -3.4580 233° Southwest 242 278 8,600 -900 Descending FlightAware
02:39PM 40.8430 -3.5390 195° South 196 226 7,500 -960 Descending FlightAware
02:40PM 40.7850 -3.5600 180° South 177 204 6,200 -1,080 Descending FlightAware
02:41PM 40.7630 -3.5600 180° South 177 204 5,800 -540 Descending FlightAware
02:41PM 40.7350 -3.5600 180° South 179 206 5,700 -360 Descending FlightAware
02:41PM 40.7190 -3.5600 180° South 182 209 5,500 -960 Descending FlightAware
02:43PM 40.6490 -3.5600 182° South 191 220 4,200 -1,020 Descending FlightAware
02:51PM 39.7554 -3.5985 North  Level Estimated
02:52PM 39.8700 -3.5936 North  Level Estimated
02:53PM 39.9846 -3.5887 North  Level Estimated
02:54PM 40.0991 -3.5838 North  Level Estimated
02:55PM 40.2137 -3.5789 North  Level Estimated
02:56PM 40.3282 -3.5739 North  Level Estimated
02:57PM 40.4428 -3.5690 North  Level Estimated
02:58PM 40.5574 -3.5640 182° South  Level Estimated
02:59PM 40.4428 -3.5690 North  Level Estimated
03:00PM 40.5574 -3.5640 182° South  Level Estimated
03:01PM 40.4428 -3.5690 North  Level Estimated
03:02PM 40.5574 -3.5640 182° South  Level Estimated
03:03PM 40.4428 -3.5690 North  Level Estimated
03:04PM 40.5574 -3.5640 182° South  Level Estimated
03:05PM 40.4428 -3.5690 North  Level Estimated
03:06PM 40.5574 -3.5640 182° South  Level Estimated
03:07PM 40.4428 -3.5690 182° South  Level Estimated